Time;durP1;ratioP1;P1;durP2;ratioP2;P2;SDS_P1;SDS_P2;PMS_P1;PMS_P2;Temp;Humidity;BMP_temperature;BMP_pressure;BME280_temperature;BME280_humidity;BME280_pressure;Samples;Min_cycle;Max_cycle;Signal;HPM_P1;HPM_P2
2021/06/29 00:01:14;;;;;;;16.77;15.07;;;;;;;19.21;72.26;98831.23;124780;1093;64210;-78
2021/06/29 00:03:42;;;;;;;17.20;15.40;;;;;;;19.16;72.35;98831.71;124785;1093;64364;-78
2021/06/29 00:06:09;;;;;;;16.97;14.87;;;;;;;19.14;72.53;98827.47;124836;1093;64191;-79
2021/06/29 00:08:36;;;;;;;19.40;15.60;;;;;;;19.11;72.60;98825.94;124791;1093;64363;-78
2021/06/29 00:11:04;;;;;;;20.00;16.30;;;;;;;19.09;72.48;98825.28;124792;1093;64290;-78
2021/06/29 00:13:31;;;;;;;17.77;15.90;;;;;;;19.07;72.92;98825.43;124809;1093;64191;-78
2021/06/29 00:15:58;;;;;;;19.07;15.63;;;;;;;19.03;73.07;98813.23;124734;1093;64268;-78
2021/06/29 00:18:26;;;;;;;17.07;15.27;;;;;;;18.99;73.11;98811.89;124867;1091;64669;-78
2021/06/29 00:20:53;;;;;;;17.70;15.50;;;;;;;18.96;73.19;98809.52;124869;1093;64274;-78
2021/06/29 00:23:20;;;;;;;17.50;15.77;;;;;;;18.92;73.04;98807.28;124904;1092;64270;-78
2021/06/29 00:25:47;;;;;;;17.13;15.30;;;;;;;18.90;73.58;98806.59;124805;1093;64288;-78
2021/06/29 00:28:15;;;;;;;17.40;15.60;;;;;;;18.89;73.85;98796.81;124812;1092;64265;-78
2021/06/29 00:30:42;;;;;;;17.63;15.40;;;;;;;18.88;73.78;98801.37;124759;1093;64379;-79
2021/06/29 00:33:10;;;;;;;17.30;15.50;;;;;;;18.88;73.94;98798.67;124790;1092;64239;-78
2021/06/29 00:35:37;;;;;;;21.23;18.00;;;;;;;18.89;74.28;98799.52;124822;1092;64195;-78
2021/06/29 00:38:04;;;;;;;18.43;16.63;;;;;;;18.86;74.00;98797.97;124745;1093;64274;-78
2021/06/29 00:40:32;;;;;;;19.73;17.83;;;;;;;18.83;74.26;98788.34;124693;1093;64225;-78
2021/06/29 00:42:59;;;;;;;19.50;17.23;;;;;;;18.79;74.27;98789.66;124747;1093;64431;-78
2021/06/29 00:45:26;;;;;;;17.60;16.00;;;;;;;18.73;74.60;98794.83;124871;1093;64356;-78
2021/06/29 00:47:54;;;;;;;18.73;16.87;;;;;;;18.66;74.43;98800.00;124801;1093;64223;-78
2021/06/29 00:50:21;;;;;;;18.77;15.87;;;;;;;18.58;74.78;98799.95;124811;1093;65435;-79
2021/06/29 00:52:48;;;;;;;18.30;16.40;;;;;;;18.56;74.80;98796.56;124794;1093;64281;-79
2021/06/29 00:55:16;;;;;;;17.60;16.00;;;;;;;18.54;74.91;98785.10;124805;1093;64217;-78
2021/06/29 00:57:48;;;;;;;17.83;16.13;;;;;;;18.51;75.00;98777.30;124780;1093;64312;-78
2021/06/29 01:00:16;;;;;;;17.50;15.80;;;;;;;18.50;75.48;98778.31;124800;1093;64287;-78
2021/06/29 01:02:43;;;;;;;17.33;15.63;;;;;;;18.50;75.55;98786.41;124908;1093;64248;-78
2021/06/29 01:05:11;;;;;;;17.83;15.97;;;;;;;18.48;75.43;98783.02;124779;1093;64241;-78
2021/06/29 01:07:40;;;;;;;17.67;15.57;;;;;;;18.45;75.49;98778.78;124741;1093;64277;-78
2021/06/29 01:10:09;;;;;;;16.17;14.70;;;;;;;18.42;75.79;98790.73;124821;1092;64408;-78
2021/06/29 01:12:36;;;;;;;18.10;16.33;;;;;;;18.40;75.87;98784.67;124806;1093;64284;-80
2021/06/29 01:15:05;;;;;;;17.73;16.00;;;;;;;18.35;75.75;98784.30;124810;1093;64248;-79
2021/06/29 01:17:32;;;;;;;17.67;15.97;;;;;;;18.32;75.76;98778.34;124880;1093;64194;-79
2021/06/29 01:20:08;;;;;;;18.47;16.70;;;;;;;18.23;76.09;98780.15;124872;1093;64263;-79
2021/06/29 01:22:35;;;;;;;18.90;17.13;;;;;;;18.15;75.89;98777.39;124894;1093;64316;-79
2021/06/29 01:25:04;;;;;;;19.50;17.57;;;;;;;18.10;76.35;98783.24;124766;1093;64271;-79
2021/06/29 01:32:48;;;;;;;20.40;18.37;;;;;;;18.02;76.67;98776.95;124720;1093;64264;-78
2021/06/29 01:35:16;;;;;;;18.27;16.47;;;;;;;18.01;77.06;98764.44;124838;1093;64268;-79
2021/06/29 01:37:44;;;;;;;20.63;18.77;;;;;;;17.99;76.91;98768.16;124788;1093;64305;-79
2021/06/29 01:40:17;;;;;;;20.45;18.40;;;;;;;17.98;77.11;98766.48;124794;1093;64188;-77
2021/06/29 01:42:50;;;;;;;20.67;18.77;;;;;;;17.98;77.27;98761.08;124762;1093;64271;-79
2021/06/29 01:45:17;;;;;;;20.07;18.00;;;;;;;17.97;77.02;98756.67;124773;1093;64406;-79
2021/06/29 01:50:18;;;;;;;18.43;16.80;;;;;;;17.96;77.55;98760.38;124788;1093;64299;-79
2021/06/29 01:52:46;;;;;;;20.97;18.93;;;;;;;17.90;77.42;98746.66;124849;1093;64245;-79
2021/06/29 01:55:15;;;;;;;21.33;19.07;;;;;;;17.90;77.79;98754.75;124708;1093;64359;-79
2021/06/29 01:57:46;;;;;;;19.57;17.57;;;;;;;17.88;77.67;98759.48;124854;1093;64418;-79
2021/06/29 02:03:40;;;;;;;20.60;18.50;;;;;;;17.89;77.98;98756.61;124771;1093;64360;-79
2021/06/29 02:06:07;;;;;;;20.67;18.67;;;;;;;17.88;78.29;98754.08;124798;1093;64191;-78
2021/06/29 02:08:35;;;;;;;21.13;18.93;;;;;;;17.87;78.13;98745.13;124727;1093;64350;-78
2021/06/29 02:11:02;;;;;;;22.47;20.43;;;;;;;17.87;78.18;98741.58;124767;1093;64283;-78
2021/06/29 02:13:29;;;;;;;22.47;20.43;;;;;;;17.85;78.61;98746.28;124810;1093;64268;-78
2021/06/29 02:15:58;;;;;;;20.40;18.40;;;;;;;17.78;78.07;98744.18;124763;1093;64214;-78
2021/06/29 02:18:29;;;;;;;18.53;16.90;;;;;;;17.76;78.47;98746.17;124855;1093;64267;-78
2021/06/29 02:20:57;;;;;;;20.20;18.30;;;;;;;17.74;78.82;98747.33;124813;1093;64271;-78
2021/06/29 02:23:24;;;;;;;20.10;18.20;;;;;;;17.66;78.60;98748.09;124736;1093;64367;-78
2021/06/29 02:25:52;;;;;;;20.10;18.30;;;;;;;17.57;78.28;98751.73;124805;1093;64325;-79
2021/06/29 02:28:19;;;;;;;21.70;19.50;;;;;;;17.48;78.76;98744.55;124817;1093;64747;-79
2021/06/29 02:30:46;;;;;;;21.30;19.30;;;;;;;17.44;79.07;98745.88;124743;1093;64331;-78
2021/06/29 02:33:13;;;;;;;20.15;18.15;;;;;;;17.43;79.12;98746.84;124805;1093;64284;-79
2021/06/29 02:35:41;;;;;;;21.77;19.77;;;;;;;17.44;79.24;98751.26;124765;1093;64283;-78
2021/06/29 02:38:09;;;;;;;21.37;19.27;;;;;;;17.45;79.70;98744.86;124801;1092;64750;-78
2021/06/29 02:40:36;;;;;;;20.23;18.17;;;;;;;17.49;80.04;98744.41;124794;1092;64265;-78
2021/06/29 02:43:03;;;;;;;20.40;18.30;;;;;;;17.56;79.54;98747.32;124845;1093;64313;-78
2021/06/29 02:45:31;;;;;;;20.60;18.70;;;;;;;17.56;79.54;98750.02;124820;1092;64364;-79
2021/06/29 02:47:58;;;;;;;20.97;18.77;;;;;;;17.58;79.68;98749.88;124771;1093;64367;-78
2021/06/29 02:50:26;;;;;;;20.50;18.50;;;;;;;17.55;79.71;98749.17;124788;1093;64335;-78
2021/06/29 02:52:53;;;;;;;19.35;17.55;;;;;;;17.59;79.55;98752.44;124782;1093;64315;-78
2021/06/29 02:55:20;;;;;;;19.17;17.37;;;;;;;17.60;79.64;98743.33;124883;1093;64188;-78
2021/06/29 02:57:47;;;;;;;19.53;17.63;;;;;;;17.60;79.40;98748.72;124813;1093;64287;-79
2021/06/29 03:00:17;;;;;;;19.93;18.00;;;;;;;17.61;79.71;98750.41;124777;1093;64312;-79
2021/06/29 03:02:45;;;;;;;20.13;18.13;;;;;;;17.65;79.55;98749.11;124873;1093;64386;-78
2021/06/29 03:05:13;;;;;;;20.93;18.97;;;;;;;17.68;79.26;98754.19;124724;1093;64274;-78
2021/06/29 03:07:41;;;;;;;21.73;19.73;;;;;;;17.71;79.47;98756.57;124868;1093;64245;-79
2021/06/29 03:10:09;;;;;;;20.33;18.27;;;;;;;17.80;79.50;98752.16;124843;1093;64287;-78
2021/06/29 03:12:37;;;;;;;19.93;17.97;;;;;;;17.86;79.70;98756.92;124865;1093;64303;-78
2021/06/29 03:15:06;;;;;;;19.80;17.47;;;;;;;17.94;79.21;98765.08;124829;1093;64419;-80
2021/06/29 03:17:34;;;;;;;18.73;17.13;;;;;;;18.06;79.71;98764.83;124891;1093;64364;-79
2021/06/29 03:20:03;;;;;;;17.67;16.03;;;;;;;18.14;79.53;98756.80;124811;1093;64268;-79
2021/06/29 03:22:30;;;;;;;19.55;17.50;;;;;;;18.20;79.05;98754.34;124795;1093;64271;-78
2021/06/29 03:24:57;;;;;;;18.63;17.03;;;;;;;18.29;78.91;98757.93;124817;1093;64319;-80
2021/06/29 03:27:24;;;;;;;20.53;18.73;;;;;;;18.38;78.57;98751.60;125048;1093;64287;-80
2021/06/29 03:29:51;;;;;;;19.77;17.83;;;;;;;18.53;78.25;98764.50;124858;1092;64223;-79
2021/06/29 03:32:18;;;;;;;17.83;16.07;;;;;;;19.43;77.28;98760.39;124866;1093;64242;-80
2021/06/29 03:34:46;;;;;;;17.10;15.50;;;;;;;20.30;75.25;98752.72;124888;1091;64259;-79
2021/06/29 03:37:13;;;;;;;15.73;14.43;;;;;;;21.04;73.57;98755.27;124854;1093;64280;-78
2021/06/29 03:39:40;;;;;;;15.87;14.37;;;;;;;21.61;71.81;98751.44;124861;1093;64399;-78
2021/06/29 03:42:07;;;;;;;16.83;15.27;;;;;;;22.03;69.88;98756.38;124803;1093;64268;-79
2021/06/29 03:44:35;;;;;;;16.43;14.87;;;;;;;22.37;69.38;98751.55;124781;1092;64158;-78
2021/06/29 03:47:02;;;;;;;16.77;15.27;;;;;;;22.74;68.83;98740.63;124787;1093;64268;-79
2021/06/29 03:49:30;;;;;;;16.23;13.60;;;;;;;23.20;67.06;98745.06;124706;1093;64258;-79
2021/06/29 03:51:57;;;;;;;15.63;14.23;;;;;;;23.63;66.39;98742.41;124823;1093;64241;-79
2021/06/29 03:54:25;;;;;;;15.20;13.77;;;;;;;23.92;64.46;98736.05;124805;1093;64267;-79
2021/06/29 03:56:52;;;;;;;14.80;13.50;;;;;;;24.14;63.96;98736.02;124800;1093;64383;-79
2021/06/29 03:59:19;;;;;;;14.67;13.27;;;;;;;24.59;63.25;98733.89;124795;1093;64267;-79
2021/06/29 04:01:46;;;;;;;16.53;13.40;;;;;;;25.04;62.67;98734.36;124774;1093;64290;-79
2021/06/29 04:04:13;;;;;;;15.00;13.70;;;;;;;25.46;61.72;98727.01;124798;1093;64287;-79
2021/06/29 04:06:40;;;;;;;14.53;13.30;;;;;;;25.89;60.49;98727.58;124799;1093;64380;-79
2021/06/29 04:09:09;;;;;;;15.33;13.30;;;;;;;26.18;59.26;98731.80;124783;1093;64273;-79
2021/06/29 04:11:37;;;;;;;14.70;13.40;;;;;;;26.52;57.80;98727.20;124757;1093;64254;-79
2021/06/29 04:14:05;;;;;;;14.60;13.10;;;;;;;26.74;56.45;98732.41;124798;1093;64408;-79
2021/06/29 04:16:33;;;;;;;14.10;12.90;;;;;;;26.99;56.32;98724.34;124820;1092;64372;-80
2021/06/29 04:19:01;;;;;;;14.67;13.37;;;;;;;27.30;55.72;98726.36;124777;1093;64242;-79
2021/06/29 04:21:28;;;;;;;13.65;12.40;;;;;;;27.33;54.86;98717.70;124791;1093;64236;-79
2021/06/29 04:23:56;;;;;;;13.97;12.77;;;;;;;27.44;54.38;98718.95;124799;1093;64686;-80
2021/06/29 04:26:23;;;;;;;14.13;12.83;;;;;;;27.49;53.78;98717.23;124772;1093;64264;-77
2021/06/29 04:28:51;;;;;;;13.63;12.43;;;;;;;27.75;53.26;98718.98;124802;1093;64417;-79
2021/06/29 04:31:18;;;;;;;13.17;12.00;;;;;;;27.78;52.31;98724.01;124778;1093;64380;-78
2021/06/29 04:33:46;;;;;;;13.60;12.40;;;;;;;27.82;52.61;98713.47;124737;1093;64350;-78
2021/06/29 04:36:14;;;;;;;13.63;12.50;;;;;;;27.87;51.46;98713.65;124807;1093;64316;-78
2021/06/29 04:38:42;;;;;;;13.03;11.80;;;;;;;27.95;51.18;98720.77;124798;1093;64391;-78
2021/06/29 04:41:09;;;;;;;13.73;12.50;;;;;;;28.07;50.48;98713.52;124813;1093;64386;-75
2021/06/29 04:43:38;;;;;;;13.03;12.03;;;;;;;28.00;50.39;98713.55;124817;1093;64389;-75
2021/06/29 04:46:06;;;;;;;12.23;11.17;;;;;;;28.23;49.44;98709.38;124838;1093;64724;-78
2021/06/29 04:48:37;;;;;;;13.60;12.40;;;;;;;28.23;49.67;98712.13;124713;1092;64261;-78
2021/06/29 04:51:06;;;;;;;13.40;12.27;;;;;;;27.21;50.27;98711.27;124748;1092;64365;-78
2021/06/29 04:53:33;;;;;;;14.10;12.45;;;;;;;26.26;50.76;98708.89;124847;1093;64428;-78
2021/06/29 04:56:00;;;;;;;15.87;12.60;;;;;;;25.53;52.55;98719.69;124715;1093;64383;-78
2021/06/29 04:58:28;;;;;;;14.80;13.43;;;;;;;25.42;52.68;98707.48;124743;1093;64328;-79
2021/06/29 05:00:55;;;;;;;15.10;13.60;;;;;;;25.46;53.35;98714.23;124920;1093;64273;-78
2021/06/29 05:03:22;;;;;;;13.73;12.37;;;;;;;26.16;52.19;98712.03;124816;1093;64180;-78
2021/06/29 05:05:49;;;;;;;12.73;11.37;;;;;;;26.62;51.30;98711.20;124798;1093;64281;-78
2021/06/29 05:08:17;;;;;;;12.80;11.60;;;;;;;27.10;50.64;98713.58;124840;1093;65460;-79
2021/06/29 05:10:44;;;;;;;12.15;11.05;;;;;;;27.41;50.45;98708.41;124798;1093;64283;-79
2021/06/29 05:13:11;;;;;;;13.40;12.00;;;;;;;26.81;50.79;98701.27;124814;1093;64188;-79
2021/06/29 05:15:38;;;;;;;14.03;12.57;;;;;;;26.43;51.40;98712.02;124774;1093;64217;-79
2021/06/29 05:18:06;;;;;;;13.97;12.63;;;;;;;26.79;51.29;98711.58;124734;1093;64338;-78
2021/06/29 05:20:33;;;;;;;13.70;12.40;;;;;;;27.04;50.47;98717.19;124781;1093;64239;-78
2021/06/29 05:23:00;;;;;;;13.07;11.93;;;;;;;26.73;50.84;98714.34;124803;1093;64284;-79
2021/06/29 05:25:28;;;;;;;12.40;11.07;;;;;;;26.96;50.23;98711.93;124796;1093;64271;-78
2021/06/29 05:27:55;;;;;;;11.57;10.47;;;;;;;27.22;49.25;98704.72;124823;1093;64325;-78
2021/06/29 05:30:23;;;;;;;13.35;11.60;;;;;;;27.28;49.39;98706.61;124754;1093;64487;-78
2021/06/29 05:32:50;;;;;;;11.90;10.80;;;;;;;26.65;50.17;98705.30;124780;1092;64698;-78
2021/06/29 05:35:18;;;;;;;14.63;11.20;;;;;;;26.91;49.49;98703.56;124759;1093;64255;-77
2021/06/29 05:37:45;;;;;;;12.10;11.10;;;;;;;27.46;48.67;98709.47;124788;1093;64309;-78
2021/06/29 05:40:12;;;;;;;12.30;11.20;;;;;;;26.84;49.40;98700.00;124872;1093;64270;-78
2021/06/29 05:42:40;;;;;;;12.73;11.47;;;;;;;27.33;48.68;98701.29;124761;1093;64233;-78
2021/06/29 05:45:09;;;;;;;13.03;11.23;;;;;;;27.63;47.73;98697.99;124789;1093;64217;-78
2021/06/29 05:47:37;;;;;;;12.80;11.55;;;;;;;27.83;47.83;98695.97;124834;1092;64237;-78
2021/06/29 05:50:11;;;;;;;12.17;11.07;;;;;;;28.18;47.21;98692.77;124787;1093;64361;-79
2021/06/29 05:52:39;;;;;;;12.70;11.50;;;;;;;28.41;47.01;98692.12;124802;1092;64277;-79
2021/06/29 05:55:08;;;;;;;11.43;10.40;;;;;;;28.76;47.06;98692.44;124817;1093;64265;-78
2021/06/29 05:57:38;;;;;;;11.55;10.45;;;;;;;29.08;46.14;98692.31;124878;1093;64361;-77
2021/06/29 06:00:17;;;;;;;12.27;11.03;;;;;;;28.92;46.58;98699.22;124862;1093;64277;-77
2021/06/29 06:02:44;;;;;;;13.07;11.30;;;;;;;29.07;46.03;98696.14;124813;1093;64268;-78
2021/06/29 06:05:11;;;;;;;11.43;10.33;;;;;;;29.29;46.83;98699.23;124782;1093;64212;-78
2021/06/29 06:07:39;;;;;;;10.60;9.60;;;;;;;29.80;46.21;98694.31;124811;1093;64894;-79
2021/06/29 06:10:07;;;;;;;10.47;9.57;;;;;;;29.93;45.28;98697.69;124751;1093;64328;-78
2021/06/29 06:12:35;;;;;;;11.90;9.80;;;;;;;29.34;44.87;98693.05;124853;1093;64262;-79
2021/06/29 06:15:03;;;;;;;10.10;9.10;;;;;;;28.80;45.19;98704.61;124792;1091;64271;-78
2021/06/29 06:17:31;;;;;;;10.33;9.30;;;;;;;28.16;45.91;98697.63;124847;1093;64364;-78
2021/06/29 06:19:58;;;;;;;12.85;9.80;;;;;;;27.50;45.68;98691.52;124742;1093;64270;-78
2021/06/29 06:22:25;;;;;;;10.63;9.43;;;;;;;27.45;46.08;98691.34;124826;1093;64191;-79
2021/06/29 06:24:53;;;;;;;10.53;9.53;;;;;;;27.74;45.81;98689.89;124751;1093;64361;-78
2021/06/29 06:27:20;;;;;;;10.20;9.30;;;;;;;28.08;45.91;98686.95;124777;1093;64287;-78
2021/06/29 06:29:48;;;;;;;15.83;9.53;;;;;;;28.30;45.80;98682.73;124764;1093;64363;-79
2021/06/29 06:32:15;;;;;;;9.70;8.90;;;;;;;28.51;45.70;98680.67;124807;1093;64287;-79
2021/06/29 06:34:42;;;;;;;10.77;9.77;;;;;;;28.57;44.87;98675.14;124782;1093;64306;-79
2021/06/29 06:37:09;;;;;;;9.80;8.75;;;;;;;28.60;45.42;98673.84;124802;1093;64242;-78
2021/06/29 06:39:37;;;;;;;9.67;8.67;;;;;;;28.66;45.03;98665.53;124802;1093;64312;-79
2021/06/29 06:42:04;;;;;;;10.73;8.50;;;;;;;28.74;45.33;98664.39;124776;1093;64368;-78
2021/06/29 06:44:31;;;;;;;9.15;8.25;;;;;;;28.98;44.93;98656.31;124803;1092;64270;-78
2021/06/29 06:46:59;;;;;;;10.05;9.00;;;;;;;28.89;44.29;98656.63;124802;1093;64316;-78
2021/06/29 06:49:26;;;;;;;10.30;9.23;;;;;;;28.81;44.68;98661.59;124840;1093;64273;-78
2021/06/29 06:51:53;;;;;;;10.13;9.23;;;;;;;28.86;44.54;98665.31;124815;1093;64242;-78
2021/06/29 06:54:20;;;;;;;10.17;9.27;;;;;;;28.78;44.52;98664.77;124800;1093;64278;-78
2021/06/29 06:56:48;;;;;;;9.50;8.70;;;;;;;28.82;44.52;98668.74;124829;1093;64318;-78
2021/06/29 06:59:15;;;;;;;10.70;9.60;;;;;;;28.69;44.43;98666.15;124771;1093;64228;-78
2021/06/29 07:01:44;;;;;;;9.90;8.87;;;;;;;28.55;44.86;98666.30;124798;1093;64701;-78
2021/06/29 07:04:11;;;;;;;;;;;;;;;28.55;44.91;98665.47;124831;1093;64303;-78
2021/06/29 07:06:39;;;;;;;8.67;7.97;;;;;;;28.59;44.81;98656.53;124766;1093;64290;-78
2021/06/29 07:09:06;;;;;;;9.83;8.97;;;;;;;28.74;45.26;98660.82;124838;1093;64278;-78
2021/06/29 07:11:33;;;;;;;11.87;9.53;;;;;;;28.95;45.32;98654.86;124729;1093;64277;-78
2021/06/29 07:14:00;;;;;;;9.10;8.27;;;;;;;29.11;45.52;98647.94;124787;1093;64268;-79
2021/06/29 07:16:27;;;;;;;10.17;8.63;;;;;;;29.36;45.57;98639.59;124708;1093;64199;-78
2021/06/29 07:18:54;;;;;;;8.70;7.90;;;;;;;29.53;44.65;98642.50;124864;1093;64271;-78
2021/06/29 07:21:26;;;;;;;8.93;8.13;;;;;;;29.49;44.54;98649.52;124860;1092;64309;-78
2021/06/29 07:23:54;;;;;;;8.20;7.50;;;;;;;29.39;44.26;98641.86;124855;1092;64265;-78
2021/06/29 07:26:23;;;;;;;8.97;8.20;;;;;;;29.35;44.05;98637.06;124886;1093;64239;-78
2021/06/29 07:28:50;;;;;;;9.53;8.53;;;;;;;29.24;43.67;98636.78;125074;1093;64244;-78
2021/06/29 07:31:18;;;;;;;8.40;7.60;;;;;;;29.15;44.30;98640.07;125162;1092;64360;-78
2021/06/29 07:33:46;;;;;;;10.17;8.00;;;;;;;28.88;44.17;98643.99;125033;1093;64574;-77
2021/06/29 07:36:18;;;;;;;8.60;7.23;;;;;;;28.54;44.34;98641.84;124877;1093;64271;-77
2021/06/29 07:38:46;;;;;;;8.87;8.03;;;;;;;28.09;44.54;98642.04;124657;1093;64251;-77
2021/06/29 07:41:14;;;;;;;8.50;7.40;;;;;;;28.21;45.86;98645.73;124752;1093;64264;-78
2021/06/29 07:43:41;;;;;;;8.50;7.77;;;;;;;28.41;45.46;98643.64;124836;1093;64300;-78
2021/06/29 07:46:09;;;;;;;8.87;7.90;;;;;;;28.46;46.06;98642.97;124772;1093;64427;-77
2021/06/29 07:48:36;;;;;;;9.87;8.20;;;;;;;28.56;46.21;98643.28;124785;1093;64284;-77
2021/06/29 07:51:05;;;;;;;9.93;8.90;;;;;;;28.72;45.52;98644.58;124824;1093;64777;-78
2021/06/29 07:53:34;;;;;;;9.50;8.53;;;;;;;28.64;45.62;98651.20;124839;1093;64297;-78
2021/06/29 07:56:02;;;;;;;10.43;9.13;;;;;;;28.49;45.20;98642.54;124826;1093;64172;-78
2021/06/29 07:58:29;;;;;;;9.07;7.87;;;;;;;28.32;45.31;98644.98;124729;1092;64431;-78
2021/06/29 08:00:57;;;;;;;9.60;8.70;;;;;;;28.02;45.51;98644.86;124702;1093;64255;-77
2021/06/29 08:03:25;;;;;;;9.07;8.20;;;;;;;27.78;46.25;98651.97;124810;1093;64180;-79
2021/06/29 08:05:52;;;;;;;9.10;8.30;;;;;;;27.72;46.94;98650.10;124795;1093;64271;-79
2021/06/29 08:08:19;;;;;;;9.23;8.43;;;;;;;27.67;46.93;98650.77;124763;1093;64367;-78
2021/06/29 08:10:47;;;;;;;9.60;8.70;;;;;;;27.66;47.30;98648.27;124777;1093;64333;-77
2021/06/29 08:13:14;;;;;;;14.53;8.40;;;;;;;27.67;47.51;98647.19;124796;1093;64287;-78
2021/06/29 08:15:41;;;;;;;9.10;8.30;;;;;;;27.61;46.87;98653.56;124858;1093;64271;-78
2021/06/29 08:18:09;;;;;;;8.35;7.55;;;;;;;27.57;47.48;98658.65;124796;1093;64281;-78
2021/06/29 08:20:36;;;;;;;8.67;7.87;;;;;;;27.81;46.96;98665.25;124770;1093;64283;-78
2021/06/29 08:23:03;;;;;;;8.90;8.20;;;;;;;28.03;46.57;98659.38;124776;1093;64425;-78
2021/06/29 08:25:33;;;;;;;9.37;8.47;;;;;;;27.95;46.33;98638.59;124790;1093;64271;-78
2021/06/29 08:28:01;;;;;;;8.33;7.60;;;;;;;27.91;46.89;98651.03;124787;1093;64379;-79
2021/06/29 08:30:29;;;;;;;8.90;7.90;;;;;;;28.15;46.56;98647.47;124759;1093;64693;-77
2021/06/29 08:32:56;;;;;;;8.63;7.93;;;;;;;28.34;46.57;98642.03;124751;1093;64426;-78
2021/06/29 08:35:23;;;;;;;8.90;8.10;;;;;;;28.48;46.39;98650.98;124772;1093;64284;-78
2021/06/29 08:37:50;;;;;;;7.90;7.10;;;;;;;28.65;46.87;98650.16;124777;1093;64293;-77
2021/06/29 08:40:18;;;;;;;8.73;8.03;;;;;;;28.94;46.19;98644.11;124797;1093;64271;-78
2021/06/29 08:42:45;;;;;;;7.90;7.30;;;;;;;29.06;46.26;98639.56;124821;1093;64201;-78
2021/06/29 08:45:14;;;;;;;9.53;8.27;;;;;;;29.08;45.78;98649.23;124756;1093;64271;-78
2021/06/29 08:47:42;;;;;;;;;;;;;;;29.07;45.26;98644.83;124837;1093;64247;-78
2021/06/29 08:50:13;;;;;;;9.80;8.80;;;;;;;28.84;45.45;98650.16;124815;1093;64258;-77
2021/06/29 08:52:41;;;;;;;9.23;8.17;;;;;;;28.52;45.53;98639.34;124841;1093;64319;-77
2021/06/29 08:55:11;;;;;;;12.35;8.20;;;;;;;28.26;45.42;98637.67;124816;1093;64290;-77
2021/06/29 08:57:38;;;;;;;9.40;7.97;;;;;;;28.17;46.12;98642.61;124753;1093;64277;-77
2021/06/29 09:00:11;;;;;;;8.40;7.70;;;;;;;28.30;46.15;98641.63;124832;1093;64282;-78
2021/06/29 09:02:40;;;;;;;9.17;8.37;;;;;;;28.52;45.05;98649.47;124837;1093;64271;-77
2021/06/29 09:05:24;;;;;;;9.53;7.53;;;;;;;28.56;44.78;98645.19;124788;1092;64341;-77
2021/06/29 09:08:09;;;;;;;8.37;7.57;;;;;;;28.50;44.94;98632.41;124823;1093;64265;-78
2021/06/29 09:10:41;;;;;;;8.67;7.70;;;;;;;28.49;45.21;98642.54;124705;1093;64255;-77
2021/06/29 09:13:11;;;;;;;11.00;8.67;;;;;;;28.45;45.38;98642.14;124770;1093;64341;-77
2021/06/29 09:15:40;;;;;;;11.50;10.30;;;;;;;28.55;45.16;98638.88;124799;1093;64199;-78
2021/06/29 09:18:07;;;;;;;12.03;10.30;;;;;;;28.78;44.64;98645.56;124790;1093;64268;-77
2021/06/29 09:20:43;;;;;;;10.63;9.17;;;;;;;28.78;44.62;98634.59;124783;1093;64188;-79
2021/06/29 09:23:35;;;;;;;11.33;8.30;;;;;;;28.94;43.79;98624.91;124811;1093;64302;-79
2021/06/29 09:26:13;;;;;;;13.33;9.63;;;;;;;28.98;43.63;98621.48;124804;1093;64508;-77
2021/06/29 09:28:48;;;;;;;11.70;10.37;;;;;;;29.03;43.28;98618.88;124849;1093;64287;-77
2021/06/29 09:31:23;;;;;;;11.20;10.13;;;;;;;28.95;44.16;98612.88;124789;1093;64287;-78
2021/06/29 09:33:57;;;;;;;11.75;10.10;;;;;;;29.14;43.80;98616.45;124838;1093;64306;-78
2021/06/29 09:36:28;;;;;;;9.57;8.67;;;;;;;29.32;43.21;98619.98;124824;1093;64289;-77
2021/06/29 09:38:58;;;;;;;12.60;8.37;;;;;;;29.45;43.48;98616.21;124798;1093;64232;-77
2021/06/29 09:41:31;;;;;;;8.73;7.87;;;;;;;29.92;43.23;98607.27;124893;1092;64187;-77
2021/06/29 09:44:10;;;;;;;8.13;7.40;;;;;;;30.26;42.64;98604.80;124822;1093;64307;-78
2021/06/29 09:46:39;;;;;;;8.37;7.57;;;;;;;30.44;42.25;98601.05;124873;1093;64264;-78
2021/06/29 09:49:09;;;;;;;9.58;7.80;;;;;;;30.42;42.06;98592.23;124854;1091;64296;-78
2021/06/29 09:51:37;;;;;;;8.07;7.37;;;;;;;30.43;41.87;98596.64;124823;1093;64447;-79
2021/06/29 09:54:08;;;;;;;8.37;7.57;;;;;;;30.49;42.00;98587.41;124740;1093;64274;-79
2021/06/29 09:56:39;;;;;;;8.77;8.03;;;;;;;30.65;42.41;98591.33;124840;1093;64191;-78
2021/06/29 09:59:22;;;;;;;8.80;8.00;;;;;;;31.00;42.26;98596.77;124845;1093;64310;-79
2021/06/29 10:01:49;;;;;;;9.30;8.50;;;;;;;30.91;41.03;98593.55;124789;1093;64345;-79
2021/06/29 10:04:16;;;;;;;8.45;7.75;;;;;;;30.71;41.44;98595.88;124773;1093;64312;-78
2021/06/29 10:06:47;;;;;;;8.67;7.93;;;;;;;30.76;41.70;98587.73;124784;1092;64297;-78
2021/06/29 10:09:17;;;;;;;9.13;8.13;;;;;;;30.75;41.07;98592.38;124767;1093;64306;-78
2021/06/29 10:11:51;;;;;;;8.73;7.77;;;;;;;30.75;41.75;98588.80;124767;1093;65780;-79
2021/06/29 10:14:20;;;;;;;10.07;9.13;;;;;;;30.91;41.84;98588.05;124765;1093;64360;-79
2021/06/29 10:16:51;;;;;;;8.60;7.83;;;;;;;31.16;41.62;98601.48;124815;1093;64252;-78
2021/06/29 10:22:03;;;;;;;7.73;7.13;;;;;;;31.09;40.34;98602.72;124785;1093;64241;-78
2021/06/29 10:24:35;;;;;;;8.57;7.97;;;;;;;31.11;39.89;98600.56;124794;1093;64335;-79
2021/06/29 10:27:06;;;;;;;8.33;7.53;;;;;;;31.16;40.97;98604.24;124846;1093;64284;-79
2021/06/29 10:29:36;;;;;;;8.93;8.17;;;;;;;31.25;41.12;98605.53;124824;1093;64217;-79
2021/06/29 10:32:07;;;;;;;9.13;8.23;;;;;;;31.29;41.27;98605.86;124823;1093;64271;-78
2021/06/29 10:34:35;;;;;;;10.27;9.47;;;;;;;31.21;39.40;98603.52;124815;1093;64284;-78
2021/06/29 10:37:04;;;;;;;12.47;10.00;;;;;;;31.02;39.97;98600.13;124679;1093;64281;-78
2021/06/29 10:39:34;;;;;;;10.60;9.65;;;;;;;30.84;40.78;98593.71;124802;1093;64268;-78
2021/06/29 10:42:10;;;;;;;10.60;9.67;;;;;;;30.85;40.59;98597.30;124824;1093;64423;-78
2021/06/29 10:44:40;;;;;;;10.65;9.65;;;;;;;30.77;41.22;98601.23;124836;1093;64284;-77
2021/06/29 10:47:24;;;;;;;10.87;9.97;;;;;;;30.76;40.95;98602.32;124833;1093;64284;-77
2021/06/29 10:49:59;;;;;;;10.97;9.87;;;;;;;30.65;40.96;98605.08;124783;1092;64274;-78
2021/06/29 10:52:34;;;;;;;9.70;8.77;;;;;;;30.49;41.68;98596.53;124779;1093;64380;-78
2021/06/29 10:55:28;;;;;;;9.90;8.95;;;;;;;30.40;41.60;98589.71;124815;1093;64380;-78
2021/06/29 10:57:59;;;;;;;9.73;8.90;;;;;;;30.35;42.06;98589.59;124784;1093;64293;-78
2021/06/29 11:00:33;;;;;;;8.93;8.10;;;;;;;30.26;41.40;98588.30;124799;1093;64364;-78
2021/06/29 11:03:05;;;;;;;9.53;8.60;;;;;;;30.18;41.92;98575.73;124827;1093;64383;-78
2021/06/29 11:05:43;;;;;;;8.37;7.70;;;;;;;30.17;41.73;98568.53;124765;1093;64370;-78
2021/06/29 11:08:13;;;;;;;7.87;7.10;;;;;;;30.09;40.76;98563.41;124781;1093;64293;-77
2021/06/29 11:10:45;;;;;;;8.57;7.77;;;;;;;29.94;41.77;98567.48;124850;1093;64264;-77
2021/06/29 11:13:13;;;;;;;10.27;8.07;;;;;;;29.80;41.53;98581.68;124863;1093;64224;-78
2021/06/29 11:15:44;;;;;;;8.50;7.83;;;;;;;29.63;42.07;98568.62;124870;1093;64264;-78
2021/06/29 11:18:13;;;;;;;7.70;7.20;;;;;;;29.51;42.21;98557.59;124856;1093;64445;-78
2021/06/29 11:20:44;;;;;;;8.40;7.73;;;;;;;29.34;42.38;98553.05;124952;1093;64300;-78
2021/06/29 11:23:23;;;;;;;14.60;8.30;;;;;;;29.25;42.66;98558.02;124957;1092;64265;-78
2021/06/29 11:26:00;;;;;;;8.43;7.57;;;;;;;29.16;42.61;98549.29;124982;1092;64361;-78
2021/06/29 11:28:32;;;;;;;8.07;7.27;;;;;;;29.24;42.76;98553.61;124891;1093;64268;-78
2021/06/29 11:31:07;;;;;;;7.60;7.10;;;;;;;29.32;42.48;98542.29;124828;1093;64361;-78
2021/06/29 11:33:40;;;;;;;7.47;6.80;;;;;;;29.23;43.15;98563.76;124871;1093;64278;-78
2021/06/29 11:36:32;;;;;;;7.83;7.07;;;;;;;29.13;42.80;98549.77;124859;1093;64268;-77
2021/06/29 11:39:14;;;;;;;7.70;7.10;;;;;;;29.21;42.71;98548.59;124810;1093;64267;-78